sensor_id;sensor_type;location;lat;lon;timestamp;temperature;humidity
39045;DHT22;52192;52.002;5.956;2023-05-07T00:00:03;18.10;77.90
39045;DHT22;52192;52.002;5.956;2023-05-07T00:02:29;18.10;78.00
39045;DHT22;52192;52.002;5.956;2023-05-07T00:04:54;18.10;78.00
39045;DHT22;52192;52.002;5.956;2023-05-07T00:07:21;18.10;78.00
39045;DHT22;52192;52.002;5.956;2023-05-07T00:09:46;18.10;77.90
39045;DHT22;52192;52.002;5.956;2023-05-07T00:12:12;18.00;77.90
39045;DHT22;52192;52.002;5.956;2023-05-07T00:14:38;18.00;78.00
39045;DHT22;52192;52.002;5.956;2023-05-07T00:17:03;17.90;77.90
39045;DHT22;52192;52.002;5.956;2023-05-07T00:19:29;18.00;78.10
39045;DHT22;52192;52.002;5.956;2023-05-07T00:21:55;17.90;78.30
39045;DHT22;52192;52.002;5.956;2023-05-07T00:24:24;17.90;78.50
39045;DHT22;52192;52.002;5.956;2023-05-07T00:26:50;17.80;78.40
39045;DHT22;52192;52.002;5.956;2023-05-07T00:29:16;17.80;78.30
39045;DHT22;52192;52.002;5.956;2023-05-07T00:31:42;17.80;78.30
39045;DHT22;52192;52.002;5.956;2023-05-07T00:34:07;17.80;78.30
39045;DHT22;52192;52.002;5.956;2023-05-07T00:36:33;17.70;78.20
39045;DHT22;52192;52.002;5.956;2023-05-07T00:39:00;17.70;78.20
39045;DHT22;52192;52.002;5.956;2023-05-07T00:41:27;17.70;78.30
39045;DHT22;52192;52.002;5.956;2023-05-07T00:43:53;17.70;78.40
39045;DHT22;52192;52.002;5.956;2023-05-07T00:46:20;17.70;78.40
39045;DHT22;52192;52.002;5.956;2023-05-07T00:48:47;17.70;78.30
39045;DHT22;52192;52.002;5.956;2023-05-07T00:51:13;17.70;78.40
39045;DHT22;52192;52.002;5.956;2023-05-07T00:53:39;17.60;78.30
39045;DHT22;52192;52.002;5.956;2023-05-07T00:56:06;17.60;78.30
39045;DHT22;52192;52.002;5.956;2023-05-07T00:58:33;17.60;78.30
39045;DHT22;52192;52.002;5.956;2023-05-07T01:00:59;17.60;78.30
39045;DHT22;52192;52.002;5.956;2023-05-07T01:03:25;17.50;78.30
39045;DHT22;52192;52.002;5.956;2023-05-07T01:05:52;17.50;78.20
39045;DHT22;52192;52.002;5.956;2023-05-07T01:08:19;17.50;78.20
39045;DHT22;52192;52.002;5.956;2023-05-07T01:10:45;17.40;78.20
39045;DHT22;52192;52.002;5.956;2023-05-07T01:13:12;17.40;78.20
39045;DHT22;52192;52.002;5.956;2023-05-07T01:15:39;17.40;78.20
39045;DHT22;52192;52.002;5.956;2023-05-07T01:18:06;17.40;78.20
39045;DHT22;52192;52.002;5.956;2023-05-07T01:20:32;17.30;78.10
39045;DHT22;52192;52.002;5.956;2023-05-07T01:23:00;17.30;78.20
39045;DHT22;52192;52.002;5.956;2023-05-07T01:25:27;17.30;78.20
39045;DHT22;52192;52.002;5.956;2023-05-07T01:27:52;17.20;78.20
39045;DHT22;52192;52.002;5.956;2023-05-07T01:30:20;17.20;78.10
39045;DHT22;52192;52.002;5.956;2023-05-07T01:35:30;17.20;78.10
39045;DHT22;52192;52.002;5.956;2023-05-07T01:37:58;17.20;78.20
39045;DHT22;52192;52.002;5.956;2023-05-07T01:40:24;17.20;78.30
39045;DHT22;52192;52.002;5.956;2023-05-07T01:42:52;17.10;78.20
39045;DHT22;52192;52.002;5.956;2023-05-07T01:45:18;17.10;78.20
39045;DHT22;52192;52.002;5.956;2023-05-07T01:47:44;17.10;78.20
39045;DHT22;52192;52.002;5.956;2023-05-07T01:50:11;17.10;78.80
39045;DHT22;52192;52.002;5.956;2023-05-07T01:52:38;17.20;78.40
39045;DHT22;52192;52.002;5.956;2023-05-07T01:55:05;17.20;78.40
39045;DHT22;52192;52.002;5.956;2023-05-07T01:57:31;17.20;78.50
39045;DHT22;52192;52.002;5.956;2023-05-07T01:59:56;17.10;78.40
39045;DHT22;52192;52.002;5.956;2023-05-07T02:02:22;17.10;78.60
39045;DHT22;52192;52.002;5.956;2023-05-07T02:04:48;17.10;78.80
39045;DHT22;52192;52.002;5.956;2023-05-07T02:07:14;17.10;78.90
39045;DHT22;52192;52.002;5.956;2023-05-07T02:09:39;17.10;78.90
39045;DHT22;52192;52.002;5.956;2023-05-07T02:12:05;17.10;78.80
39045;DHT22;52192;52.002;5.956;2023-05-07T02:14:31;17.10;78.70
39045;DHT22;52192;52.002;5.956;2023-05-07T02:16:57;17.20;78.70
39045;DHT22;52192;52.002;5.956;2023-05-07T02:19:22;17.20;78.70
39045;DHT22;52192;52.002;5.956;2023-05-07T02:21:50;17.10;78.60
39045;DHT22;52192;52.002;5.956;2023-05-07T02:24:17;17.20;78.70
39045;DHT22;52192;52.002;5.956;2023-05-07T02:26:42;17.20;78.70
39045;DHT22;52192;52.002;5.956;2023-05-07T02:29:08;17.20;78.70
39045;DHT22;52192;52.002;5.956;2023-05-07T02:31:34;17.20;78.80
39045;DHT22;52192;52.002;5.956;2023-05-07T02:34:00;17.20;79.40
39045;DHT22;52192;52.002;5.956;2023-05-07T02:36:26;17.10;78.80
39045;DHT22;52192;52.002;5.956;2023-05-07T02:38:52;17.20;78.90
39045;DHT22;52192;52.002;5.956;2023-05-07T02:41:18;17.10;79.00
39045;DHT22;52192;52.002;5.956;2023-05-07T02:43:43;17.20;79.10
39045;DHT22;52192;52.002;5.956;2023-05-07T02:46:09;17.10;79.00
39045;DHT22;52192;52.002;5.956;2023-05-07T02:48:35;17.10;79.00
39045;DHT22;52192;52.002;5.956;2023-05-07T02:51:02;17.10;79.00
39045;DHT22;52192;52.002;5.956;2023-05-07T02:53:28;17.10;79.00
39045;DHT22;52192;52.002;5.956;2023-05-07T02:55:59;17.10;79.00
39045;DHT22;52192;52.002;5.956;2023-05-07T02:58:25;17.00;79.00
39045;DHT22;52192;52.002;5.956;2023-05-07T03:00:51;17.00;79.00
39045;DHT22;52192;52.002;5.956;2023-05-07T03:03:18;17.10;79.00
39045;DHT22;52192;52.002;5.956;2023-05-07T03:05:44;17.10;79.00
39045;DHT22;52192;52.002;5.956;2023-05-07T03:08:10;17.10;79.00
39045;DHT22;52192;52.002;5.956;2023-05-07T03:10:36;17.10;79.50
39045;DHT22;52192;52.002;5.956;2023-05-07T03:13:02;17.00;78.90
39045;DHT22;52192;52.002;5.956;2023-05-07T03:15:28;17.00;79.00
39045;DHT22;52192;52.002;5.956;2023-05-07T03:17:55;17.00;79.00
39045;DHT22;52192;52.002;5.956;2023-05-07T03:20:20;17.00;79.10
39045;DHT22;52192;52.002;5.956;2023-05-07T03:22:46;17.10;79.10
39045;DHT22;52192;52.002;5.956;2023-05-07T03:25:12;17.10;79.10
39045;DHT22;52192;52.002;5.956;2023-05-07T03:27:39;17.10;79.10
39045;DHT22;52192;52.002;5.956;2023-05-07T03:30:05;17.10;79.20
39045;DHT22;52192;52.002;5.956;2023-05-07T03:32:32;17.00;79.30
39045;DHT22;52192;52.002;5.956;2023-05-07T03:34:58;17.00;79.30
39045;DHT22;52192;52.002;5.956;2023-05-07T03:37:24;17.00;79.40
39045;DHT22;52192;52.002;5.956;2023-05-07T03:39:49;17.00;79.30
39045;DHT22;52192;52.002;5.956;2023-05-07T03:42:15;17.00;79.40
39045;DHT22;52192;52.002;5.956;2023-05-07T03:44:46;16.90;79.40
39045;DHT22;52192;52.002;5.956;2023-05-07T03:47:13;16.90;79.50
39045;DHT22;52192;52.002;5.956;2023-05-07T03:49:39;16.90;79.60
39045;DHT22;52192;52.002;5.956;2023-05-07T03:52:06;16.90;79.60
39045;DHT22;52192;52.002;5.956;2023-05-07T03:54:32;16.90;79.60
39045;DHT22;52192;52.002;5.956;2023-05-07T03:56:58;16.90;79.50
39045;DHT22;52192;52.002;5.956;2023-05-07T03:59:23;16.90;79.50
39045;DHT22;52192;52.002;5.956;2023-05-07T04:01:49;16.90;79.50
39045;DHT22;52192;52.002;5.956;2023-05-07T04:04:15;16.90;79.60
39045;DHT22;52192;52.002;5.956;2023-05-07T04:06:41;16.90;79.60
39045;DHT22;52192;52.002;5.956;2023-05-07T04:09:07;16.90;79.70
39045;DHT22;52192;52.002;5.956;2023-05-07T04:11:33;16.80;79.70
39045;DHT22;52192;52.002;5.956;2023-05-07T04:14:00;16.90;79.90
39045;DHT22;52192;52.002;5.956;2023-05-07T04:16:27;16.80;79.80
39045;DHT22;52192;52.002;5.956;2023-05-07T04:18:52;16.90;79.80
39045;DHT22;52192;52.002;5.956;2023-05-07T04:21:20;16.90;79.80
39045;DHT22;52192;52.002;5.956;2023-05-07T04:23:47;16.90;79.80
39045;DHT22;52192;52.002;5.956;2023-05-07T04:26:13;16.90;79.80
39045;DHT22;52192;52.002;5.956;2023-05-07T04:28:39;16.90;79.80
39045;DHT22;52192;52.002;5.956;2023-05-07T04:31:05;16.90;79.80
39045;DHT22;52192;52.002;5.956;2023-05-07T04:33:31;16.90;79.90
39045;DHT22;52192;52.002;5.956;2023-05-07T04:36:03;16.90;80.00
39045;DHT22;52192;52.002;5.956;2023-05-07T04:38:32;16.90;80.00
39045;DHT22;52192;52.002;5.956;2023-05-07T04:41:03;17.00;80.00
39045;DHT22;52192;52.002;5.956;2023-05-07T04:43:29;16.90;80.00
39045;DHT22;52192;52.002;5.956;2023-05-07T04:45:55;17.00;80.10
39045;DHT22;52192;52.002;5.956;2023-05-07T04:48:20;17.00;80.70
39045;DHT22;52192;52.002;5.956;2023-05-07T04:50:50;17.00;80.10
39045;DHT22;52192;52.002;5.956;2023-05-07T04:53:16;17.00;80.10
39045;DHT22;52192;52.002;5.956;2023-05-07T04:55:43;17.00;80.10
39045;DHT22;52192;52.002;5.956;2023-05-07T04:58:09;17.00;80.10
39045;DHT22;52192;52.002;5.956;2023-05-07T05:00:35;17.00;80.10
39045;DHT22;52192;52.002;5.956;2023-05-07T05:03:01;17.00;80.20
39045;DHT22;52192;52.002;5.956;2023-05-07T05:05:26;17.00;80.10
39045;DHT22;52192;52.002;5.956;2023-05-07T05:07:52;17.00;80.20
39045;DHT22;52192;52.002;5.956;2023-05-07T05:10:18;17.00;80.20
39045;DHT22;52192;52.002;5.956;2023-05-07T05:12:44;17.10;80.20
39045;DHT22;52192;52.002;5.956;2023-05-07T05:15:11;17.10;80.30
39045;DHT22;52192;52.002;5.956;2023-05-07T05:17:38;17.10;80.30
39045;DHT22;52192;52.002;5.956;2023-05-07T05:20:04;17.00;80.20
39045;DHT22;52192;52.002;5.956;2023-05-07T05:22:31;17.00;80.30
39045;DHT22;52192;52.002;5.956;2023-05-07T05:24:57;17.10;80.40
39045;DHT22;52192;52.002;5.956;2023-05-07T05:27:22;17.00;80.30
39045;DHT22;52192;52.002;5.956;2023-05-07T05:29:48;17.00;80.30
39045;DHT22;52192;52.002;5.956;2023-05-07T05:32:14;17.10;80.30
39045;DHT22;52192;52.002;5.956;2023-05-07T05:34:40;17.10;80.30
39045;DHT22;52192;52.002;5.956;2023-05-07T05:37:05;17.10;80.30
39045;DHT22;52192;52.002;5.956;2023-05-07T05:39:31;17.10;80.30
39045;DHT22;52192;52.002;5.956;2023-05-07T05:41:57;17.10;80.40
39045;DHT22;52192;52.002;5.956;2023-05-07T05:44:22;17.10;80.30
39045;DHT22;52192;52.002;5.956;2023-05-07T05:46:48;17.10;80.30
39045;DHT22;52192;52.002;5.956;2023-05-07T05:49:15;17.10;80.30
39045;DHT22;52192;52.002;5.956;2023-05-07T05:51:41;17.10;81.00
39045;DHT22;52192;52.002;5.956;2023-05-07T05:54:06;17.10;80.40
39045;DHT22;52192;52.002;5.956;2023-05-07T05:56:32;17.10;80.40
39045;DHT22;52192;52.002;5.956;2023-05-07T05:58:58;17.20;80.40
39045;DHT22;52192;52.002;5.956;2023-05-07T06:01:24;17.20;80.40
39045;DHT22;52192;52.002;5.956;2023-05-07T06:03:50;17.20;80.40
39045;DHT22;52192;52.002;5.956;2023-05-07T06:06:15;17.20;80.40
39045;DHT22;52192;52.002;5.956;2023-05-07T06:08:42;17.20;80.50
39045;DHT22;52192;52.002;5.956;2023-05-07T06:11:07;17.20;80.60
39045;DHT22;52192;52.002;5.956;2023-05-07T06:13:33;17.20;80.60
39045;DHT22;52192;52.002;5.956;2023-05-07T06:15:59;17.20;80.60
39045;DHT22;52192;52.002;5.956;2023-05-07T06:18:24;17.20;80.60
39045;DHT22;52192;52.002;5.956;2023-05-07T06:20:51;17.20;80.60
39045;DHT22;52192;52.002;5.956;2023-05-07T06:23:17;17.20;80.50
39045;DHT22;52192;52.002;5.956;2023-05-07T06:25:48;17.20;80.60
39045;DHT22;52192;52.002;5.956;2023-05-07T06:28:13;17.20;80.60
39045;DHT22;52192;52.002;5.956;2023-05-07T06:30:39;17.30;80.60
39045;DHT22;52192;52.002;5.956;2023-05-07T06:33:05;17.30;80.50
39045;DHT22;52192;52.002;5.956;2023-05-07T06:35:31;17.40;80.50
39045;DHT22;52192;52.002;5.956;2023-05-07T06:37:57;17.40;80.30
39045;DHT22;52192;52.002;5.956;2023-05-07T06:40:22;17.50;80.30
39045;DHT22;52192;52.002;5.956;2023-05-07T06:42:48;17.50;80.40
39045;DHT22;52192;52.002;5.956;2023-05-07T06:45:14;17.50;80.40
39045;DHT22;52192;52.002;5.956;2023-05-07T06:47:40;17.60;80.40
39045;DHT22;52192;52.002;5.956;2023-05-07T06:50:06;17.60;80.30
39045;DHT22;52192;52.002;5.956;2023-05-07T06:52:32;17.70;80.30
39045;DHT22;52192;52.002;5.956;2023-05-07T06:54:58;17.80;80.30
39045;DHT22;52192;52.002;5.956;2023-05-07T06:57:24;17.80;80.30
39045;DHT22;52192;52.002;5.956;2023-05-07T06:59:50;17.80;80.20
39045;DHT22;52192;52.002;5.956;2023-05-07T07:02:15;17.80;80.20
39045;DHT22;52192;52.002;5.956;2023-05-07T07:04:41;17.80;80.20
39045;DHT22;52192;52.002;5.956;2023-05-07T07:07:07;17.90;80.20
39045;DHT22;52192;52.002;5.956;2023-05-07T07:09:33;17.90;80.10
39045;DHT22;52192;52.002;5.956;2023-05-07T07:11:59;18.00;80.00
39045;DHT22;52192;52.002;5.956;2023-05-07T07:14:25;18.00;79.90
39045;DHT22;52192;52.002;5.956;2023-05-07T07:16:51;18.00;80.00
39045;DHT22;52192;52.002;5.956;2023-05-07T07:19:16;18.00;80.10
39045;DHT22;52192;52.002;5.956;2023-05-07T07:21:42;18.00;80.10
39045;DHT22;52192;52.002;5.956;2023-05-07T07:24:08;18.00;80.10
39045;DHT22;52192;52.002;5.956;2023-05-07T07:26:34;18.10;80.10
39045;DHT22;52192;52.002;5.956;2023-05-07T07:29:00;18.10;79.90
39045;DHT22;52192;52.002;5.956;2023-05-07T07:31:25;18.20;79.80
39045;DHT22;52192;52.002;5.956;2023-05-07T07:33:51;18.20;79.80
39045;DHT22;52192;52.002;5.956;2023-05-07T07:36:17;18.20;79.70
39045;DHT22;52192;52.002;5.956;2023-05-07T07:38:42;18.20;79.70
39045;DHT22;52192;52.002;5.956;2023-05-07T07:41:08;18.20;79.60
39045;DHT22;52192;52.002;5.956;2023-05-07T07:43:34;18.20;79.70
39045;DHT22;52192;52.002;5.956;2023-05-07T07:46:01;18.30;79.80
39045;DHT22;52192;52.002;5.956;2023-05-07T07:48:26;18.30;79.70
39045;DHT22;52192;52.002;5.956;2023-05-07T07:50:52;18.30;79.70
39045;DHT22;52192;52.002;5.956;2023-05-07T07:53:18;18.30;79.70
39045;DHT22;52192;52.002;5.956;2023-05-07T07:55:44;18.30;79.50
39045;DHT22;52192;52.002;5.956;2023-05-07T07:58:09;18.40;79.50
39045;DHT22;52192;52.002;5.956;2023-05-07T08:00:36;18.40;79.40
39045;DHT22;52192;52.002;5.956;2023-05-07T08:03:02;18.50;79.40
39045;DHT22;52192;52.002;5.956;2023-05-07T08:05:29;18.50;79.30
39045;DHT22;52192;52.002;5.956;2023-05-07T08:07:55;18.50;79.20
39045;DHT22;52192;52.002;5.956;2023-05-07T08:10:21;18.50;79.20
39045;DHT22;52192;52.002;5.956;2023-05-07T08:12:48;18.60;79.20
39045;DHT22;52192;52.002;5.956;2023-05-07T08:15:15;18.60;79.10
39045;DHT22;52192;52.002;5.956;2023-05-07T08:17:41;18.60;79.10
39045;DHT22;52192;52.002;5.956;2023-05-07T08:20:07;18.60;79.00
39045;DHT22;52192;52.002;5.956;2023-05-07T08:22:36;18.60;79.00
39045;DHT22;52192;52.002;5.956;2023-05-07T08:25:02;18.70;79.00
39045;DHT22;52192;52.002;5.956;2023-05-07T08:27:28;18.70;78.90
39045;DHT22;52192;52.002;5.956;2023-05-07T08:29:54;18.80;78.70
39045;DHT22;52192;52.002;5.956;2023-05-07T08:32:21;18.80;78.60
39045;DHT22;52192;52.002;5.956;2023-05-07T08:34:47;18.80;78.70
39045;DHT22;52192;52.002;5.956;2023-05-07T08:37:16;18.80;78.70
39045;DHT22;52192;52.002;5.956;2023-05-07T08:39:41;18.90;78.50
39045;DHT22;52192;52.002;5.956;2023-05-07T08:42:09;18.90;78.40
39045;DHT22;52192;52.002;5.956;2023-05-07T08:44:35;19.00;78.40
39045;DHT22;52192;52.002;5.956;2023-05-07T08:47:01;19.00;78.30
39045;DHT22;52192;52.002;5.956;2023-05-07T08:49:28;19.10;78.30
39045;DHT22;52192;52.002;5.956;2023-05-07T08:51:54;19.10;78.20
39045;DHT22;52192;52.002;5.956;2023-05-07T08:54:23;19.20;78.20
39045;DHT22;52192;52.002;5.956;2023-05-07T08:56:53;19.30;78.10
39045;DHT22;52192;52.002;5.956;2023-05-07T08:59:19;19.30;78.00
39045;DHT22;52192;52.002;5.956;2023-05-07T09:01:45;19.40;78.00
39045;DHT22;52192;52.002;5.956;2023-05-07T09:04:11;19.40;77.90
39045;DHT22;52192;52.002;5.956;2023-05-07T09:06:38;19.50;78.00
39045;DHT22;52192;52.002;5.956;2023-05-07T09:09:07;19.50;77.80
39045;DHT22;52192;52.002;5.956;2023-05-07T09:11:33;19.60;77.80
39045;DHT22;52192;52.002;5.956;2023-05-07T09:13:59;19.70;77.60
39045;DHT22;52192;52.002;5.956;2023-05-07T09:16:28;19.80;77.50
39045;DHT22;52192;52.002;5.956;2023-05-07T09:18:54;19.80;77.30
39045;DHT22;52192;52.002;5.956;2023-05-07T09:21:21;19.80;77.20
39045;DHT22;52192;52.002;5.956;2023-05-07T09:23:51;19.90;77.20
39045;DHT22;52192;52.002;5.956;2023-05-07T09:26:18;20.10;77.10
39045;DHT22;52192;52.002;5.956;2023-05-07T09:28:44;20.30;76.80
39045;DHT22;52192;52.002;5.956;2023-05-07T09:31:12;20.50;76.50
39045;DHT22;52192;52.002;5.956;2023-05-07T09:33:38;20.70;76.10
39045;DHT22;52192;52.002;5.956;2023-05-07T09:36:06;20.80;75.80
39045;DHT22;52192;52.002;5.956;2023-05-07T09:38:33;21.00;75.60
39045;DHT22;52192;52.002;5.956;2023-05-07T09:41:12;21.10;75.40
39045;DHT22;52192;52.002;5.956;2023-05-07T09:43:39;21.20;75.30
39045;DHT22;52192;52.002;5.956;2023-05-07T09:46:15;21.30;75.10
39045;DHT22;52192;52.002;5.956;2023-05-07T09:48:43;21.30;74.70
39045;DHT22;52192;52.002;5.956;2023-05-07T09:51:30;21.40;74.70
39045;DHT22;52192;52.002;5.956;2023-05-07T09:53:57;21.40;74.30
39045;DHT22;52192;52.002;5.956;2023-05-07T09:56:25;21.40;74.10
39045;DHT22;52192;52.002;5.956;2023-05-07T09:58:54;21.50;74.10
39045;DHT22;52192;52.002;5.956;2023-05-07T10:01:21;21.50;73.80
39045;DHT22;52192;52.002;5.956;2023-05-07T10:03:50;21.60;74.20
39045;DHT22;52192;52.002;5.956;2023-05-07T10:06:17;21.80;73.30
39045;DHT22;52192;52.002;5.956;2023-05-07T10:08:44;21.90;72.90
39045;DHT22;52192;52.002;5.956;2023-05-07T10:11:10;22.00;72.80
39045;DHT22;52192;52.002;5.956;2023-05-07T10:13:36;22.10;72.60
39045;DHT22;52192;52.002;5.956;2023-05-07T10:16:04;22.10;72.30
39045;DHT22;52192;52.002;5.956;2023-05-07T10:18:33;22.10;72.30
39045;DHT22;52192;52.002;5.956;2023-05-07T10:21:04;22.10;72.30
39045;DHT22;52192;52.002;5.956;2023-05-07T10:23:33;22.10;72.20
39045;DHT22;52192;52.002;5.956;2023-05-07T10:26:05;22.20;72.00
39045;DHT22;52192;52.002;5.956;2023-05-07T10:28:38;22.30;72.00
39045;DHT22;52192;52.002;5.956;2023-05-07T10:33:55;22.40;71.70
39045;DHT22;52192;52.002;5.956;2023-05-07T10:36:22;22.50;71.40
39045;DHT22;52192;52.002;5.956;2023-05-07T10:38:49;22.60;71.10
39045;DHT22;52192;52.002;5.956;2023-05-07T10:41:15;22.80;70.80
39045;DHT22;52192;52.002;5.956;2023-05-07T10:43:45;22.90;70.60
39045;DHT22;52192;52.002;5.956;2023-05-07T10:46:20;23.10;70.20
39045;DHT22;52192;52.002;5.956;2023-05-07T10:51:29;23.70;69.10
39045;DHT22;52192;52.002;5.956;2023-05-07T10:56:39;23.90;68.30
39045;DHT22;52192;52.002;5.956;2023-05-07T11:01:54;24.20;67.40
39045;DHT22;52192;52.002;5.956;2023-05-07T11:04:24;24.20;66.90
39045;DHT22;52192;52.002;5.956;2023-05-07T11:15:07;24.80;65.40
39045;DHT22;52192;52.002;5.956;2023-05-07T11:17:34;24.90;64.90
39045;DHT22;52192;52.002;5.956;2023-05-07T11:20:01;24.90;64.60
39045;DHT22;52192;52.002;5.956;2023-05-07T11:24:58;24.90;64.60
39045;DHT22;52192;52.002;5.956;2023-05-07T11:27:25;25.00;64.60
39045;DHT22;52192;52.002;5.956;2023-05-07T11:29:53;25.10;64.50
39045;DHT22;52192;52.002;5.956;2023-05-07T11:32:23;25.20;64.40
39045;DHT22;52192;52.002;5.956;2023-05-07T11:35:00;25.30;64.30
39045;DHT22;52192;52.002;5.956;2023-05-07T11:37:27;25.10;64.00
39045;DHT22;52192;52.002;5.956;2023-05-07T11:40:08;25.00;64.00
39045;DHT22;52192;52.002;5.956;2023-05-07T11:42:37;24.90;64.30
39045;DHT22;52192;52.002;5.956;2023-05-07T11:45:04;24.80;64.30
39045;DHT22;52192;52.002;5.956;2023-05-07T11:47:31;24.70;64.40
39045;DHT22;52192;52.002;5.956;2023-05-07T11:50:05;24.70;64.40
39045;DHT22;52192;52.002;5.956;2023-05-07T11:52:33;24.60;64.40
39045;DHT22;52192;52.002;5.956;2023-05-07T11:55:00;24.50;64.60
39045;DHT22;52192;52.002;5.956;2023-05-07T11:57:27;24.40;64.80
39045;DHT22;52192;52.002;5.956;2023-05-07T11:59:56;24.50;64.90
39045;DHT22;52192;52.002;5.956;2023-05-07T12:02:23;24.40;64.90
39045;DHT22;52192;52.002;5.956;2023-05-07T12:04:53;24.40;64.90
39045;DHT22;52192;52.002;5.956;2023-05-07T12:07:19;24.40;64.70
39045;DHT22;52192;52.002;5.956;2023-05-07T12:09:46;24.50;64.60
39045;DHT22;52192;52.002;5.956;2023-05-07T12:12:13;24.50;64.50
39045;DHT22;52192;52.002;5.956;2023-05-07T12:14:44;24.50;64.50
39045;DHT22;52192;52.002;5.956;2023-05-07T12:17:11;24.40;64.30
39045;DHT22;52192;52.002;5.956;2023-05-07T12:19:39;24.40;63.90
39045;DHT22;52192;52.002;5.956;2023-05-07T12:22:08;24.30;63.90
39045;DHT22;52192;52.002;5.956;2023-05-07T12:24:43;24.30;63.90
39045;DHT22;52192;52.002;5.956;2023-05-07T12:27:10;24.20;63.90
39045;DHT22;52192;52.002;5.956;2023-05-07T12:29:36;24.10;64.10
39045;DHT22;52192;52.002;5.956;2023-05-07T12:32:06;24.10;64.20
39045;DHT22;52192;52.002;5.956;2023-05-07T12:34:32;24.10;64.30
39045;DHT22;52192;52.002;5.956;2023-05-07T12:37:02;24.00;64.30
39045;DHT22;52192;52.002;5.956;2023-05-07T12:39:29;24.00;64.30
39045;DHT22;52192;52.002;5.956;2023-05-07T12:41:59;24.00;64.30
39045;DHT22;52192;52.002;5.956;2023-05-07T12:44:34;24.10;64.20
39045;DHT22;52192;52.002;5.956;2023-05-07T12:47:03;24.10;64.10
39045;DHT22;52192;52.002;5.956;2023-05-07T12:49:29;24.20;64.00
39045;DHT22;52192;52.002;5.956;2023-05-07T12:51:55;24.20;63.90
39045;DHT22;52192;52.002;5.956;2023-05-07T12:54:32;24.20;63.80
39045;DHT22;52192;52.002;5.956;2023-05-07T12:57:02;24.30;64.00
39045;DHT22;52192;52.002;5.956;2023-05-07T12:59:41;24.10;64.00
39045;DHT22;52192;52.002;5.956;2023-05-07T13:02:08;24.10;64.30
39045;DHT22;52192;52.002;5.956;2023-05-07T13:04:35;24.10;64.60
39045;DHT22;52192;52.002;5.956;2023-05-07T13:07:01;24.00;64.60
39045;DHT22;52192;52.002;5.956;2023-05-07T13:09:27;23.90;64.90
39045;DHT22;52192;52.002;5.956;2023-05-07T13:11:54;24.00;65.10
39045;DHT22;52192;52.002;5.956;2023-05-07T13:17:42;24.00;65.40
39045;DHT22;52192;52.002;5.956;2023-05-07T13:20:10;23.80;65.40
39045;DHT22;52192;52.002;5.956;2023-05-07T13:22:38;23.80;65.40
39045;DHT22;52192;52.002;5.956;2023-05-07T13:25:04;23.80;65.40
39045;DHT22;52192;52.002;5.956;2023-05-07T13:27:30;23.70;65.50
39045;DHT22;52192;52.002;5.956;2023-05-07T13:29:56;23.70;65.50
39045;DHT22;52192;52.002;5.956;2023-05-07T13:32:22;23.70;65.70
39045;DHT22;52192;52.002;5.956;2023-05-07T13:34:48;23.60;65.70
39045;DHT22;52192;52.002;5.956;2023-05-07T13:37:14;23.60;65.90
39045;DHT22;52192;52.002;5.956;2023-05-07T13:39:39;23.60;65.80
39045;DHT22;52192;52.002;5.956;2023-05-07T13:42:09;23.50;65.70
39045;DHT22;52192;52.002;5.956;2023-05-07T13:44:35;23.50;65.80
39045;DHT22;52192;52.002;5.956;2023-05-07T13:47:01;23.60;65.90
39045;DHT22;52192;52.002;5.956;2023-05-07T13:49:27;23.60;65.80
39045;DHT22;52192;52.002;5.956;2023-05-07T13:51:55;23.70;65.70
39045;DHT22;52192;52.002;5.956;2023-05-07T13:54:21;23.70;65.60
39045;DHT22;52192;52.002;5.956;2023-05-07T13:56:47;23.70;65.40
39045;DHT22;52192;52.002;5.956;2023-05-07T14:02:18;23.90;65.20
39045;DHT22;52192;52.002;5.956;2023-05-07T14:04:43;24.00;65.00
39045;DHT22;52192;52.002;5.956;2023-05-07T14:07:10;24.10;64.60
39045;DHT22;52192;52.002;5.956;2023-05-07T14:09:37;24.30;65.00
39045;DHT22;52192;52.002;5.956;2023-05-07T14:12:03;24.40;64.10
39045;DHT22;52192;52.002;5.956;2023-05-07T14:14:29;24.50;63.70
39045;DHT22;52192;52.002;5.956;2023-05-07T14:16:55;24.60;63.40
39045;DHT22;52192;52.002;5.956;2023-05-07T14:19:21;24.70;63.10
39045;DHT22;52192;52.002;5.956;2023-05-07T14:21:48;24.90;63.10
39045;DHT22;52192;52.002;5.956;2023-05-07T14:24:14;25.00;62.70
39045;DHT22;52192;52.002;5.956;2023-05-07T14:26:40;25.10;62.50
39045;DHT22;52192;52.002;5.956;2023-05-07T14:29:06;25.00;62.30
39045;DHT22;52192;52.002;5.956;2023-05-07T14:31:32;24.90;62.30
39045;DHT22;52192;52.002;5.956;2023-05-07T14:33:59;24.80;62.60
39045;DHT22;52192;52.002;5.956;2023-05-07T14:36:25;24.70;62.90
39045;DHT22;52192;52.002;5.956;2023-05-07T14:38:55;24.60;63.20
39045;DHT22;52192;52.002;5.956;2023-05-07T14:41:24;24.50;63.60
39045;DHT22;52192;52.002;5.956;2023-05-07T14:43:50;24.40;63.90
39045;DHT22;52192;52.002;5.956;2023-05-07T14:46:17;24.30;64.20
39045;DHT22;52192;52.002;5.956;2023-05-07T14:48:47;24.20;64.20
39045;DHT22;52192;52.002;5.956;2023-05-07T14:51:13;24.10;64.20
39045;DHT22;52192;52.002;5.956;2023-05-07T14:53:40;24.00;64.90
39045;DHT22;52192;52.002;5.956;2023-05-07T14:56:06;23.90;64.10
39045;DHT22;52192;52.002;5.956;2023-05-07T14:58:32;23.80;64.00
39045;DHT22;52192;52.002;5.956;2023-05-07T15:00:58;23.80;64.10
39045;DHT22;52192;52.002;5.956;2023-05-07T15:03:24;23.70;64.00
39045;DHT22;52192;52.002;5.956;2023-05-07T15:05:50;23.70;64.10
39045;DHT22;52192;52.002;5.956;2023-05-07T15:08:17;23.70;64.20
39045;DHT22;52192;52.002;5.956;2023-05-07T15:10:43;23.70;64.20
39045;DHT22;52192;52.002;5.956;2023-05-07T15:13:10;23.70;64.30
39045;DHT22;52192;52.002;5.956;2023-05-07T15:15:36;23.70;64.30
39045;DHT22;52192;52.002;5.956;2023-05-07T15:18:02;23.70;64.30
39045;DHT22;52192;52.002;5.956;2023-05-07T15:20:28;23.60;64.20
39045;DHT22;52192;52.002;5.956;2023-05-07T15:22:54;23.40;64.20
39045;DHT22;52192;52.002;5.956;2023-05-07T15:25:21;23.30;64.40
39045;DHT22;52192;52.002;5.956;2023-05-07T15:27:47;23.30;64.70
39045;DHT22;52192;52.002;5.956;2023-05-07T15:30:13;23.30;64.80
39045;DHT22;52192;52.002;5.956;2023-05-07T15:32:40;23.20;64.80
39045;DHT22;52192;52.002;5.956;2023-05-07T15:35:06;23.20;64.80
39045;DHT22;52192;52.002;5.956;2023-05-07T15:37:33;23.20;64.90
39045;DHT22;52192;52.002;5.956;2023-05-07T15:39:59;23.10;65.00
39045;DHT22;52192;52.002;5.956;2023-05-07T15:42:27;23.10;65.00
39045;DHT22;52192;52.002;5.956;2023-05-07T15:44:53;23.00;65.10
39045;DHT22;52192;52.002;5.956;2023-05-07T15:53:45;22.70;64.80
39045;DHT22;52192;52.002;5.956;2023-05-07T15:56:12;22.40;64.70
39045;DHT22;52192;52.002;5.956;2023-05-07T15:58:37;22.20;64.60
39045;DHT22;52192;52.002;5.956;2023-05-07T16:01:03;22.10;64.20
39045;DHT22;52192;52.002;5.956;2023-05-07T16:03:30;21.90;64.20